Time;durP1;ratioP1;P1;durP2;ratioP2;P2;SDS_P1;SDS_P2;PMS_P1;PMS_P2;Temp;Humidity;BMP_temperature;BMP_pressure;BME280_temperature;BME280_humidity;BME280_pressure;Samples;Min_cycle;Max_cycle;Signal;HPM_P1;HPM_P2
2021/01/25 00:00:30;;;;;;;7.78;6.15;;;4.40;77.10;;;;;;5066676;28;20044;-75
2021/01/25 00:02:56;;;;;;;7.43;6.72;;;4.40;77.10;;;;;;5066584;28;20115;-75
2021/01/25 00:05:22;;;;;;;6.90;6.20;;;4.40;77.10;;;;;;5067107;28;20104;-77
2021/01/25 00:07:48;;;;;;;7.32;6.60;;;4.30;77.00;;;;;;5066773;28;20048;-76
2021/01/25 00:10:14;;;;;;;6.85;6.07;;;4.30;77.00;;;;;;5066198;28;20504;-76
2021/01/25 00:12:40;;;;;;;6.75;6.15;;;4.30;77.00;;;;;;5067033;28;20040;-77
2021/01/25 00:15:07;;;;;;;6.72;6.03;;;4.30;77.00;;;;;;5065770;28;20040;-77
2021/01/25 00:17:33;;;;;;;6.85;5.97;;;4.20;77.30;;;;;;5047092;28;20119;-76
2021/01/25 00:19:59;;;;;;;7.65;6.82;;;4.20;76.80;;;;;;5046598;28;20028;-77
2021/01/25 00:22:27;;;;;;;7.75;6.00;;;4.20;76.90;;;;;;5047206;28;20029;-76
2021/01/25 00:24:53;;;;;;;8.40;6.88;;;4.20;76.90;;;;;;5046794;28;20434;-77
2021/01/25 00:27:19;;;;;;;6.95;6.25;;;4.20;76.90;;;;;;5045225;28;20388;-77
2021/01/25 00:29:45;;;;;;;7.18;6.45;;;4.10;76.80;;;;;;5046527;28;20236;-77
2021/01/25 00:32:11;;;;;;;9.95;6.10;;;4.10;76.80;;;;;;5046416;28;20040;-81
2021/01/25 00:34:40;;;;;;;6.75;6.05;;;4.10;76.80;;;;;;5044975;28;20029;-77
2021/01/25 00:37:06;;;;;;;7.85;6.13;;;4.00;76.60;;;;;;5046381;28;20139;-77
2021/01/25 00:39:32;;;;;;;7.05;6.35;;;4.00;76.70;;;;;;5055261;28;20100;-77
2021/01/25 00:41:58;;;;;;;8.80;6.60;;;4.00;76.70;;;;;;5064829;28;20134;-76
2021/01/25 00:44:24;;;;;;;7.65;6.85;;;4.00;76.70;;;;;;5064002;28;20119;-77
2021/01/25 00:46:50;;;;;;;13.07;6.80;;;3.90;76.50;;;;;;5065655;28;20040;-76
2021/01/25 00:49:16;;;;;;;7.50;6.45;;;3.90;76.50;;;;;;5047817;28;20102;-77
2021/01/25 00:51:42;;;;;;;8.15;7.00;;;3.90;76.60;;;;;;5047921;28;20032;-77
2021/01/25 00:54:09;;;;;;;9.73;7.53;;;3.90;76.60;;;;;;5064583;28;20039;-78
2021/01/25 00:56:35;;;;;;;8.68;6.57;;;3.80;76.40;;;;;;5064808;28;20112;-76
2021/01/25 00:59:01;;;;;;;7.85;6.63;;;3.80;76.40;;;;;;5064459;28;20207;-77
2021/01/25 01:01:27;;;;;;;8.95;6.95;;;3.70;76.20;;;;;;5047672;28;20036;-77
2021/01/25 01:03:53;;;;;;;8.60;7.60;;;3.70;76.20;;;;;;5065609;28;20087;-77
2021/01/25 01:06:19;;;;;;;7.50;6.78;;;3.70;76.30;;;;;;5065760;28;20564;-76
2021/01/25 01:08:45;;;;;;;8.38;7.13;;;3.70;76.30;;;;;;5065540;28;20043;-77
2021/01/25 01:11:11;;;;;;;11.75;6.63;;;3.60;76.10;;;;;;5047146;28;20028;-76
2021/01/25 01:13:37;;;;;;;8.48;7.53;;;3.60;76.10;;;;;;5065545;28;20036;-77
2021/01/25 01:16:03;;;;;;;9.48;6.65;;;3.60;76.10;;;;;;5049339;28;20029;-76
2021/01/25 01:18:29;;;;;;;10.23;7.38;;;3.60;76.20;;;;;;5043895;28;20033;-76
2021/01/25 01:20:55;;;;;;;9.80;7.32;;;3.50;76.00;;;;;;5045712;28;20036;-77
2021/01/25 01:23:21;;;;;;;9.93;6.93;;;3.50;76.00;;;;;;5045234;28;20087;-78
2021/01/25 01:25:47;;;;;;;8.18;7.00;;;3.50;76.00;;;;;;5044592;28;20120;-76
2021/01/25 01:28:13;;;;;;;8.15;7.30;;;3.50;76.00;;;;;;5045201;28;20052;-76
2021/01/25 01:30:39;;;;;;;9.52;7.63;;;3.40;75.80;;;;;;5044619;28;20392;-76
2021/01/25 01:33:05;;;;;;;8.80;7.93;;;3.40;75.80;;;;;;5048419;28;20089;-77
2021/01/25 01:35:31;;;;;;;16.48;8.25;;;3.40;75.90;;;;;;5065614;28;20036;-77
2021/01/25 01:37:57;;;;;;;9.57;7.97;;;3.30;75.70;;;;;;5065499;28;20119;-78
2021/01/25 01:40:22;;;;;;;7.50;6.60;;;3.30;75.80;;;;;;5064359;28;20060;-76
2021/01/25 01:42:48;;;;;;;9.20;7.47;;;3.30;75.80;;;;;;5064880;28;20036;-77
2021/01/25 01:45:14;;;;;;;8.95;7.47;;;3.30;75.80;;;;;;5063449;28;20033;-76
2021/01/25 01:47:42;;;;;;;8.77;7.93;;;3.30;75.80;;;;;;5063255;28;20127;-76
2021/01/25 01:50:09;;;;;;;10.23;7.50;;;3.20;75.60;;;;;;5064437;28;20027;-76
2021/01/25 01:52:35;;;;;;;7.85;7.05;;;3.20;75.70;;;;;;5064559;28;20444;-77
2021/01/25 01:55:02;;;;;;;8.27;7.43;;;3.20;75.70;;;;;;5063117;28;20047;-75
2021/01/25 01:57:33;;;;;;;11.85;8.18;;;3.20;75.70;;;;;;5063657;28;20069;-75
2021/01/25 02:00:00;;;;;;;10.90;7.72;;;3.10;75.50;;;;;;5055429;28;20028;-77
2021/01/25 02:02:26;;;;;;;8.52;7.15;;;3.10;75.50;;;;;;5043063;28;21039;-78
2021/01/25 02:04:52;;;;;;;8.85;7.65;;;3.10;75.50;;;;;;5044194;28;20124;-78
2021/01/25 02:07:19;;;;;;;9.60;7.55;;;3.10;75.50;;;;;;5044727;28;20602;-77
2021/01/25 02:09:47;;;;;;;10.00;7.25;;;3.10;75.50;;;;;;5042908;28;20021;-78
2021/01/25 02:12:17;;;;;;;8.15;7.28;;;3.00;75.30;;;;;;5042955;28;20110;-81
2021/01/25 02:14:44;;;;;;;10.23;7.63;;;3.00;75.30;;;;;;5043107;28;20393;-77
2021/01/25 02:17:13;;;;;;;10.13;7.50;;;3.00;75.40;;;;;;5043614;28;20560;-80
2021/01/25 02:19:52;;;;;;;7.15;6.45;;;3.00;75.30;;;;;;5044282;28;20075;-78
2021/01/25 02:22:18;;;;;;;8.10;7.30;;;2.90;75.10;;;;;;5044292;28;20074;-78
2021/01/25 02:24:51;;;;;;;10.05;7.13;;;3.00;75.40;;;;;;5060777;28;20410;-78
2021/01/25 02:27:35;;;;;;;8.05;7.05;;;2.90;75.20;;;;;;5064663;28;20124;-77
2021/01/25 02:30:05;;;;;;;7.93;7.13;;;2.90;75.20;;;;;;5063817;28;20054;-80
2021/01/25 02:32:32;;;;;;;7.60;6.78;;;2.80;75.00;;;;;;5059045;28;20024;-79
2021/01/25 02:35:01;;;;;;;9.07;7.25;;;2.80;75.00;;;;;;5047917;28;20499;-77
2021/01/25 02:37:29;;;;;;;11.70;7.53;;;2.80;75.00;;;;;;5044763;28;20037;-76
2021/01/25 02:39:56;;;;;;;8.10;7.30;;;2.70;74.80;;;;;;5073796;28;20037;-77
2021/01/25 02:42:24;;;;;;;7.95;7.15;;;2.70;74.90;;;;;;5064583;28;20384;-78
2021/01/25 02:44:51;;;;;;;11.23;7.05;;;2.70;74.90;;;;;;5068610;28;20504;-76
2021/01/25 02:47:19;;;;;;;10.27;6.90;;;2.70;74.90;;;;;;5062625;28;20455;-78
2021/01/25 02:49:45;;;;;;;7.78;6.90;;;2.60;74.80;;;;;;5055536;28;20052;-76
2021/01/25 02:52:14;;;;;;;7.93;6.63;;;2.70;75.00;;;;;;5059396;28;20036;-79
2021/01/25 02:54:41;;;;;;;9.13;6.63;;;2.60;74.80;;;;;;5053177;28;20029;-75
2021/01/25 02:57:08;;;;;;;9.10;7.28;;;2.60;74.80;;;;;;5053084;28;20078;-79
2021/01/25 02:59:37;;;;;;;7.18;6.50;;;2.60;74.80;;;;;;5052398;28;20503;-78
2021/01/25 03:02:05;;;;;;;9.18;6.85;;;2.50;74.70;;;;;;5068240;28;20422;-76
2021/01/25 03:04:33;;;;;;;6.75;5.90;;;2.50;74.70;;;;;;5053156;28;20028;-77
2021/01/25 03:06:59;;;;;;;8.27;6.40;;;2.40;74.50;;;;;;5067856;28;20053;-77
2021/01/25 03:09:26;;;;;;;12.07;6.78;;;2.40;74.50;;;;;;5068068;28;20117;-77
2021/01/25 03:11:52;;;;;;;9.88;6.30;;;2.40;74.50;;;;;;5067574;28;20053;-79
2021/01/25 03:14:19;;;;;;;8.85;6.90;;;2.30;74.30;;;;;;5052588;28;20029;-78
2021/01/25 03:16:45;;;;;;;9.70;7.13;;;2.30;74.30;;;;;;5067096;28;20358;-78
2021/01/25 03:19:11;;;;;;;8.77;7.15;;;2.30;74.30;;;;;;5072441;28;20025;-78
2021/01/25 03:21:54;;;;;;;9.60;6.95;;;2.30;74.30;;;;;;5072328;28;20036;-79
2021/01/25 03:24:21;;;;;;;7.33;6.47;;;2.20;74.10;;;;;;5072644;28;20028;-79
2021/01/25 03:26:48;;;;;;;7.95;6.65;;;2.20;74.20;;;;;;5072622;28;20067;-77
2021/01/25 03:29:14;;;;;;;9.65;7.28;;;2.20;74.20;;;;;;5072386;28;20108;-76
2021/01/25 03:31:40;;;;;;;9.98;6.68;;;2.10;74.00;;;;;;5070828;28;20082;-81
2021/01/25 03:34:07;;;;;;;9.98;6.78;;;2.00;73.90;;;;;;5072868;28;20025;-79
2021/01/25 03:36:34;;;;;;;9.73;7.38;;;2.00;73.90;;;;;;5071246;28;20064;-77
2021/01/25 03:38:59;;;;;;;8.60;7.00;;;2.00;73.90;;;;;;5067308;28;20056;-80
2021/01/25 03:41:26;;;;;;;8.38;7.22;;;2.00;73.90;;;;;;5070857;28;20055;-77
2021/01/25 03:43:52;;;;;;;7.88;7.05;;;2.00;73.90;;;;;;5072060;28;20437;-81
2021/01/25 03:46:18;;;;;;;10.75;7.50;;;1.90;73.80;;;;;;5071101;28;20033;-78
2021/01/25 03:48:44;;;;;;;7.65;6.85;;;1.90;73.80;;;;;;5070977;28;20487;-79
2021/01/25 03:51:10;;;;;;;7.55;6.70;;;1.90;73.80;;;;;;5072532;28;20025;-78
2021/01/25 03:53:36;;;;;;;8.88;7.45;;;1.80;73.60;;;;;;5070887;28;20428;-78
2021/01/25 03:56:03;;;;;;;8.25;7.05;;;1.80;73.70;;;;;;5071902;28;20123;-78
2021/01/25 03:58:29;;;;;;;7.70;6.28;;;1.80;73.70;;;;;;5072216;28;20566;-77
2021/01/25 04:00:55;;;;;;;8.55;7.50;;;1.70;73.50;;;;;;5071724;28;20218;-77
2021/01/25 04:03:21;;;;;;;9.82;7.18;;;1.70;73.50;;;;;;5070514;28;20440;-77
2021/01/25 04:05:47;;;;;;;8.80;6.68;;;1.70;73.50;;;;;;5072142;28;20051;-76
2021/01/25 04:08:14;;;;;;;7.85;6.70;;;1.60;73.30;;;;;;5053056;28;20040;-77
2021/01/25 04:10:40;;;;;;;8.98;7.40;;;1.60;73.40;;;;;;5053289;28;20097;-77
2021/01/25 04:13:06;;;;;;;8.13;7.32;;;1.60;73.30;;;;;;5070001;28;20024;-77
2021/01/25 04:15:32;;;;;;;10.18;6.90;;;1.60;73.30;;;;;;5069874;28;20111;-77
2021/01/25 04:17:59;;;;;;;7.28;6.57;;;1.60;73.30;;;;;;5071892;28;20060;-79
2021/01/25 04:20:25;;;;;;;8.25;7.10;;;1.60;73.40;;;;;;5070077;28;20024;-76
2021/01/25 04:22:51;;;;;;;8.52;7.28;;;1.50;73.20;;;;;;5071552;28;20112;-79
2021/01/25 04:25:17;;;;;;;10.57;7.43;;;1.50;73.20;;;;;;5071990;28;20048;-78
2021/01/25 04:27:43;;;;;;;8.63;7.65;;;1.40;73.10;;;;;;5071630;28;20082;-75
2021/01/25 04:30:11;;;;;;;7.97;6.72;;;1.40;73.10;;;;;;5070557;28;20036;-76
2021/01/25 04:32:37;;;;;;;12.73;7.25;;;1.40;73.10;;;;;;5070159;28;20480;-78
2021/01/25 04:35:07;;;;;;;7.95;7.15;;;1.40;73.10;;;;;;5071239;28;20032;-79
2021/01/25 04:37:32;;;;;;;7.15;6.45;;;1.30;72.90;;;;;;5069984;28;20511;-78
2021/01/25 04:39:58;;;;;;;7.65;6.47;;;1.30;72.90;;;;;;5071254;28;20028;-77
2021/01/25 04:42:25;;;;;;;7.20;6.38;;;1.30;72.90;;;;;;5070866;28;20032;-78
2021/01/25 04:44:52;;;;;;;9.95;6.45;;;1.30;72.90;;;;;;5052930;28;20070;-76
2021/01/25 04:47:23;;;;;;;9.57;6.47;;;1.30;73.00;;;;;;5069249;28;20093;-75
2021/01/25 04:49:51;;;;;;;8.82;6.90;;;1.20;72.80;;;;;;5069554;28;20380;-75
2021/01/25 04:52:20;;;;;;;7.68;6.88;;;1.20;72.80;;;;;;5070796;28;20106;-75
2021/01/25 04:54:47;;;;;;;10.75;6.75;;;1.20;72.80;;;;;;5070564;28;20468;-78
2021/01/25 04:57:16;;;;;;;11.27;7.22;;;1.20;72.80;;;;;;5069273;28;20029;-78
2021/01/25 04:59:46;;;;;;;7.03;6.28;;;1.10;72.60;;;;;;5070546;28;20029;-75
2021/01/25 05:02:13;;;;;;;10.05;7.55;;;1.10;72.60;;;;;;5069430;28;20060;-76
2021/01/25 05:04:40;;;;;;;6.90;6.20;;;1.10;72.70;;;;;;5070428;28;20024;-75
2021/01/25 05:07:06;;;;;;;9.30;7.60;;;1.10;72.70;;;;;;5068300;28;20085;-77
2021/01/25 05:09:33;;;;;;;8.75;7.07;;;1.00;72.50;;;;;;5070422;28;20047;-77
2021/01/25 05:12:01;;;;;;;7.55;6.60;;;1.00;72.50;;;;;;5068719;28;20033;-77
2021/01/25 05:14:41;;;;;;;12.07;8.55;;;1.00;72.50;;;;;;5068644;28;20036;-76
2021/01/25 05:17:10;;;;;;;6.82;6.13;;;1.00;72.50;;;;;;5049156;28;20136;-77
2021/01/25 05:19:43;;;;;;;6.95;5.88;;;0.90;72.30;;;;;;5050103;28;20545;-75
2021/01/25 05:22:13;;;;;;;9.13;6.18;;;0.90;72.40;;;;;;5049262;28;20037;-78
2021/01/25 05:24:49;;;;;;;7.22;6.53;;;0.90;72.40;;;;;;5050098;28;20025;-77
2021/01/25 05:27:25;;;;;;;8.90;6.97;;;0.90;72.30;;;;;;5048683;28;20071;-75
2021/01/25 05:29:52;;;;;;;6.78;6.07;;;0.80;72.10;;;;;;5031764;28;20059;-77
2021/01/25 05:32:19;;;;;;;8.88;5.97;;;0.80;72.20;;;;;;5048577;28;20037;-76
2021/01/25 05:34:48;;;;;;;7.57;6.80;;;0.80;72.20;;;;;;5048436;28;20124;-79
2021/01/25 05:37:16;;;;;;;8.50;6.22;;;0.80;72.20;;;;;;5048299;28;20107;-77
2021/01/25 05:39:46;;;;;;;9.85;6.88;;;0.70;72.10;;;;;;5050130;28;20033;-77
2021/01/25 05:42:13;;;;;;;8.93;6.90;;;0.70;72.00;;;;;;5018653;28;20136;-77
2021/01/25 05:44:40;;;;;;;8.20;7.28;;;0.70;72.10;;;;;;5056599;28;20044;-77
2021/01/25 05:47:08;;;;;;;7.97;6.55;;;0.70;72.10;;;;;;5062481;28;20045;-77
2021/01/25 05:49:34;;;;;;;10.50;7.80;;;0.70;72.10;;;;;;5044775;28;20603;-79
2021/01/25 05:52:00;;;;;;;7.55;6.28;;;0.60;71.90;;;;;;5055464;28;20033;-77
2021/01/25 05:54:27;;;;;;;8.60;6.00;;;0.60;72.00;;;;;;5062234;28;20151;-78
2021/01/25 05:56:53;;;;;;;7.80;6.68;;;0.60;72.00;;;;;;5064604;28;20071;-78
2021/01/25 05:59:20;;;;;;;9.05;7.40;;;0.50;71.80;;;;;;5038165;28;20078;-82
2021/01/25 06:01:50;;;;;;;11.05;6.78;;;0.50;71.80;;;;;;5053571;28;20075;-79
2021/01/25 06:04:21;;;;;;;10.30;7.72;;;0.50;71.80;;;;;;5059793;28;20021;-76
2021/01/25 06:07:11;;;;;;;7.82;6.38;;;0.50;71.80;;;;;;5059402;28;20566;-79
2021/01/25 06:09:53;;;;;;;8.48;6.95;;;0.50;71.80;;;;;;5062953;28;20068;-76
2021/01/25 06:12:26;;;;;;;9.05;6.55;;;0.50;71.80;;;;;;5044666;28;20040;-79
2021/01/25 06:15:04;;;;;;;7.05;6.32;;;0.40;71.60;;;;;;5059231;28;20020;-75
2021/01/25 06:17:35;;;;;;;9.93;6.45;;;0.40;71.60;;;;;;5050918;28;20052;-77
2021/01/25 06:20:04;;;;;;;9.43;7.57;;;0.40;71.70;;;;;;5051124;28;20021;-83
2021/01/25 06:22:31;;;;;;;8.40;6.82;;;0.40;71.80;;;;;;5041014;28;20089;-81
2021/01/25 06:25:01;;;;;;;8.10;6.55;;;0.50;72.20;;;;;;5046590;28;20043;-76
2021/01/25 06:27:30;;;;;;;9.95;7.88;;;0.50;72.20;;;;;;5044381;28;20446;-83
2021/01/25 06:30:01;;;;;;;9.48;6.80;;;0.60;72.10;;;;;;5055468;28;20028;-81
2021/01/25 06:32:40;;;;;;;9.05;7.03;;;0.70;72.10;;;;;;5066738;28;20162;-79
2021/01/25 06:35:08;;;;;;;9.52;7.60;;;0.70;72.50;;;;;;5050651;28;20033;-75
2021/01/25 06:37:35;;;;;;;8.52;7.05;;;0.60;71.70;;;;;;5060703;28;20115;-76
2021/01/25 06:40:30;;;;;;;8.07;7.25;;;0.60;71.70;;;;;;5052018;28;20386;-75
2021/01/25 06:42:56;;;;;;;8.75;7.85;;;0.60;71.70;;;;;;5050587;28;20116;-76
2021/01/25 06:45:24;;;;;;;8.65;7.22;;;0.60;71.70;;;;;;5046552;28;20028;-76
2021/01/25 06:47:50;;;;;;;10.13;7.78;;;0.60;71.80;;;;;;5046231;28;20110;-74
2021/01/25 06:50:18;;;;;;;9.30;8.32;;;0.50;71.70;;;;;;5030303;28;20021;-75
2021/01/25 06:52:47;;;;;;;11.80;8.85;;;0.50;71.70;;;;;;5054857;28;20044;-75
2021/01/25 06:55:13;;;;;;;10.02;8.55;;;0.50;71.80;;;;;;5051094;28;20146;-83
2021/01/25 06:57:40;;;;;;;10.02;8.27;;;0.40;71.70;;;;;;5059658;28;20036;-80
2021/01/25 07:00:18;;;;;;;10.23;8.55;;;0.50;72.00;;;;;;5058198;28;20029;-76
2021/01/25 07:02:59;;;;;;;10.07;8.05;;;0.50;72.10;;;;;;5060926;28;20251;-78
2021/01/25 07:05:25;;;;;;;8.43;7.38;;;0.50;72.10;;;;;;5038943;28;20032;-78
2021/01/25 07:07:51;;;;;;;9.90;7.85;;;0.50;72.00;;;;;;5059668;28;20060;-80
2021/01/25 07:10:20;;;;;;;10.60;8.18;;;0.50;72.00;;;;;;5050675;28;20029;-75
2021/01/25 07:12:46;;;;;;;9.75;7.75;;;0.50;71.90;;;;;;5055464;28;20035;-76
2021/01/25 07:15:13;;;;;;;11.55;7.38;;;0.50;71.90;;;;;;5061013;28;20238;-75
2021/01/25 07:17:40;;;;;;;11.43;8.73;;;0.40;71.70;;;;;;5062167;28;20445;-75
2021/01/25 07:20:06;;;;;;;13.13;8.52;;;0.40;71.80;;;;;;5062063;28;20527;-75
2021/01/25 07:22:36;;;;;;;14.07;8.00;;;0.40;71.80;;;;;;5061576;28;20090;-76
2021/01/25 07:25:02;;;;;;;8.23;7.28;;;0.40;71.80;;;;;;5062743;28;20391;-80
2021/01/25 07:27:35;;;;;;;9.32;7.63;;;0.40;71.90;;;;;;5061950;28;20047;-82
2021/01/25 07:30:02;;;;;;;9.80;8.52;;;0.30;71.70;;;;;;5066185;28;20326;-86
2021/01/25 07:32:28;;;;;;;10.88;8.35;;;0.30;71.80;;;;;;5068366;28;20463;-76
2021/01/25 07:34:57;;;;;;;10.32;8.13;;;0.30;71.80;;;;;;5067725;28;20066;-79
2021/01/25 07:37:23;;;;;;;9.77;7.82;;;0.30;71.80;;;;;;5067048;28;20376;-83
2021/01/25 07:39:49;;;;;;;9.70;8.50;;;0.30;71.90;;;;;;5068007;28;20132;-77
2021/01/25 07:42:15;;;;;;;12.80;8.18;;;0.30;71.90;;;;;;5066763;28;20140;-83
2021/01/25 07:44:46;;;;;;;10.38;8.38;;;0.20;71.80;;;;;;5065359;28;20024;-77
2021/01/25 07:47:12;;;;;;;10.20;8.52;;;0.20;71.80;;;;;;5051986;28;20163;-77
2021/01/25 07:49:38;;;;;;;11.93;8.73;;;0.20;71.90;;;;;;5064273;28;20203;-78
2021/01/25 07:52:15;;;;;;;11.07;8.65;;;0.20;71.90;;;;;;5064918;28;20437;-77
2021/01/25 07:54:42;;;;;;;10.13;8.38;;;0.20;71.90;;;;;;5045570;28;20205;-83
2021/01/25 07:57:21;;;;;;;13.35;9.25;;;0.20;72.00;;;;;;5046981;28;20100;-76
2021/01/25 07:59:47;;;;;;;12.18;9.60;;;0.20;72.00;;;;;;5047599;28;20037;-75
2021/01/25 08:02:15;;;;;;;12.18;9.30;;;0.10;71.80;;;;;;5065180;28;20443;-77
2021/01/25 08:04:44;;;;;;;13.57;9.52;;;0.10;71.90;;;;;;5048267;28;20033;-79
2021/01/25 08:07:14;;;;;;;10.60;9.50;;;0.10;71.90;;;;;;5067049;28;20037;-76
2021/01/25 08:09:43;;;;;;;15.75;9.10;;;0.10;71.90;;;;;;5065308;28;20388;-75
2021/01/25 08:12:10;;;;;;;18.38;10.95;;;0.10;71.90;;;;;;5065047;28;20085;-79
2021/01/25 08:14:48;;;;;;;11.73;9.38;;;0.10;71.90;;;;;;5065857;28;20039;-76
2021/01/25 08:17:31;;;;;;;9.70;8.60;;;0.10;71.90;;;;;;5062218;28;20075;-75
2021/01/25 08:20:03;;;;;;;11.75;9.85;;;0.00;71.80;;;;;;5028435;28;20099;-76
2021/01/25 08:22:43;;;;;;;11.18;9.38;;;0.10;72.00;;;;;;5051578;28;20028;-75
2021/01/25 08:25:16;;;;;;;14.65;10.25;;;0.10;71.90;;;;;;5066422;28;20499;-77
2021/01/25 08:27:52;;;;;;;14.30;10.85;;;0.00;71.80;;;;;;5066700;28;20055;-76
2021/01/25 08:30:22;;;;;;;12.50;10.27;;;0.10;72.00;;;;;;5065199;28;20036;-76
2021/01/25 08:32:51;;;;;;;12.23;10.73;;;0.00;71.80;;;;;;5048141;28;20033;-76
2021/01/25 08:35:51;;;;;;;12.05;10.63;;;0.00;71.80;;;;;;5065489;28;20033;-76
2021/01/25 08:38:25;;;;;;;13.70;11.13;;;0.00;71.80;;;;;;5065640;28;20093;-75
2021/01/25 08:40:54;;;;;;;13.02;11.05;;;0.10;72.00;;;;;;5060929;28;20032;-75
2021/01/25 08:43:24;;;;;;;12.00;10.63;;;0.00;71.80;;;;;;5056256;28;20338;-77
2021/01/25 08:45:52;;;;;;;12.43;11.13;;;0.10;72.00;;;;;;5064757;28;20143;-76
2021/01/25 08:48:31;;;;;;;10.93;9.75;;;0.00;71.80;;;;;;5053960;28;20452;-77
2021/01/25 08:51:12;;;;;;;10.93;9.52;;;0.10;72.00;;;;;;5064239;28;20530;-74
2021/01/25 08:53:39;;;;;;;12.13;10.40;;;0.10;72.50;;;;;;5051051;28;20043;-76
2021/01/25 08:56:38;;;;;;;11.68;10.48;;;0.10;72.00;;;;;;5028121;28;20040;-77
2021/01/25 08:59:13;;;;;;;12.57;10.27;;;0.10;72.00;;;;;;5028308;28;20083;-74
2021/01/25 09:01:41;;;;;;;11.45;10.05;;;0.10;71.90;;;;;;5044290;28;20068;-75
2021/01/25 09:04:08;;;;;;;13.60;9.65;;;0.10;71.90;;;;;;5044388;28;20078;-74
2021/01/25 09:06:48;;;;;;;15.45;11.77;;;0.10;72.00;;;;;;5045611;28;20048;-75
2021/01/25 09:09:14;;;;;;;12.48;10.80;;;0.20;72.20;;;;;;5045788;28;20476;-75
2021/01/25 09:11:40;;;;;;;12.15;10.55;;;0.20;72.10;;;;;;5029006;28;20033;-75
2021/01/25 09:14:06;;;;;;;11.82;9.40;;;0.20;72.10;;;;;;5063949;28;20109;-76
2021/01/25 09:16:32;;;;;;;14.50;10.55;;;0.20;72.10;;;;;;5054728;28;20048;-76
2021/01/25 09:18:58;;;;;;;12.48;11.00;;;0.30;72.20;;;;;;5037088;28;20557;-75
2021/01/25 09:21:24;;;;;;;12.93;10.65;;;0.30;72.20;;;;;;5049257;28;20037;-75
2021/01/25 09:23:50;;;;;;;12.05;10.80;;;0.30;72.20;;;;;;5059953;28;20127;-75
2021/01/25 09:26:16;;;;;;;11.32;9.93;;;0.30;72.10;;;;;;5048057;28;20115;-76
2021/01/25 09:28:42;;;;;;;13.05;9.70;;;0.40;72.30;;;;;;5064321;28;20032;-76
2021/01/25 09:31:08;;;;;;;13.13;10.38;;;0.40;72.30;;;;;;5065271;28;20024;-75
2021/01/25 09:33:34;;;;;;;12.98;10.90;;;0.40;72.20;;;;;;5066899;28;20024;-75
2021/01/25 09:36:00;;;;;;;16.80;10.32;;;0.40;72.20;;;;;;5065220;28;20123;-75
2021/01/25 09:38:26;;;;;;;10.98;9.32;;;0.40;72.20;;;;;;5066055;28;20025;-77
2021/01/25 09:40:52;;;;;;;13.82;10.48;;;0.40;72.20;;;;;;5067667;28;20047;-76
2021/01/25 09:43:18;;;;;;;11.13;9.88;;;0.50;72.30;;;;;;5064467;28;20332;-74
2021/01/25 09:45:44;;;;;;;13.70;10.13;;;0.50;72.30;;;;;;5064726;28;20028;-75
2021/01/25 09:48:10;;;;;;;15.60;9.88;;;0.50;72.30;;;;;;5065766;28;20148;-76
2021/01/25 09:50:36;;;;;;;11.50;10.30;;;0.50;72.30;;;;;;5066769;28;20025;-74
2021/01/25 09:53:03;;;;;;;11.90;9.20;;;0.60;72.40;;;;;;5049966;28;20036;-76
2021/01/25 09:55:29;;;;;;;10.65;9.55;;;0.60;72.40;;;;;;5069745;28;20032;-75
2021/01/25 09:57:56;;;;;;;9.82;8.82;;;0.60;72.40;;;;;;5049450;28;20115;-75
2021/01/25 10:00:22;;;;;;;10.68;9.57;;;0.60;72.40;;;;;;5068200;28;20075;-75
2021/01/25 10:02:48;;;;;;;11.20;10.10;;;0.60;72.40;;;;;;5065086;28;20040;-76
2021/01/25 10:05:15;;;;;;;12.13;10.23;;;0.60;72.30;;;;;;5066476;28;20043;-75
2021/01/25 10:07:41;;;;;;;15.73;8.93;;;0.70;72.50;;;;;;5064530;28;20082;-76
2021/01/25 10:10:10;;;;;;;11.02;8.75;;;0.70;72.50;;;;;;5064488;28;20036;-75
2021/01/25 10:12:37;;;;;;;9.88;8.88;;;0.70;72.40;;;;;;5064342;28;20036;-74
2021/01/25 10:15:06;;;;;;;9.65;8.60;;;0.80;72.60;;;;;;5063794;28;20029;-77
2021/01/25 10:17:32;;;;;;;12.90;8.02;;;0.80;72.50;;;;;;5045237;28;20036;-74
2021/01/25 10:19:58;;;;;;;11.13;8.40;;;0.90;72.90;;;;;;5043031;28;20037;-76
2021/01/25 10:22:24;;;;;;;11.43;9.07;;;1.00;73.30;;;;;;5043962;28;20123;-81
2021/01/25 10:24:49;;;;;;;9.32;7.40;;;1.10;73.40;;;;;;5042599;28;20074;-76
2021/01/25 10:27:16;;;;;;;9.23;7.72;;;1.20;73.40;;;;;;5042984;28;20069;-74
2021/01/25 10:29:42;;;;;;;8.43;7.38;;;1.40;73.60;;;;;;5043706;28;20414;-76
2021/01/25 10:32:08;;;;;;;9.55;7.57;;;1.40;73.30;;;;;;5044893;28;20025;-75
2021/01/25 10:34:34;;;;;;;9.65;6.63;;;1.50;73.30;;;;;;5044947;28;20036;-77
2021/01/25 10:37:00;;;;;;;9.20;7.30;;;1.50;73.20;;;;;;5044253;28;20033;-77
2021/01/25 10:39:26;;;;;;;11.63;6.95;;;1.60;73.30;;;;;;5044567;28;20074;-76
2021/01/25 10:41:52;;;;;;;9.02;7.05;;;1.70;73.40;;;;;;5044587;28;20484;-77
2021/01/25 10:44:18;;;;;;;9.38;7.10;;;1.70;73.40;;;;;;5044092;28;20029;-78
2021/01/25 10:46:45;;;;;;;7.43;6.03;;;1.70;73.40;;;;;;5044155;28;20055;-80
2021/01/25 10:49:11;;;;;;;9.98;6.63;;;1.80;73.60;;;;;;5043359;28;20113;-77
2021/01/25 10:51:37;;;;;;;9.32;6.18;;;1.80;73.60;;;;;;5044740;28;20113;-76
2021/01/25 10:54:03;;;;;;;8.93;6.43;;;1.80;73.60;;;;;;5042975;28;20419;-81
2021/01/25 10:56:29;;;;;;;9.18;6.68;;;1.80;73.60;;;;;;5044837;28;20566;-76
2021/01/25 10:58:55;;;;;;;7.60;6.70;;;1.80;73.60;;;;;;5044468;28;20164;-76
2021/01/25 11:01:21;;;;;;;11.18;6.78;;;1.90;73.80;;;;;;5041880;28;20115;-78
2021/01/25 11:03:47;;;;;;;10.15;7.25;;;1.90;73.80;;;;;;5043345;28;20156;-82
2021/01/25 11:06:14;;;;;;;8.45;6.30;;;1.90;73.80;;;;;;5048068;28;20053;-78
2021/01/25 11:08:41;;;;;;;8.55;7.45;;;2.00;73.90;;;;;;5047886;28;20530;-78
2021/01/25 11:11:07;;;;;;;7.13;6.43;;;2.00;73.90;;;;;;5046611;28;20127;-75
2021/01/25 11:13:33;;;;;;;10.82;7.57;;;2.00;73.90;;;;;;5029546;28;20033;-76
2021/01/25 11:15:59;;;;;;;8.43;6.80;;;2.10;74.10;;;;;;5035396;28;20188;-79
2021/01/25 11:18:25;;;;;;;10.80;6.15;;;2.10;74.10;;;;;;5048856;28;20379;-75
2021/01/25 11:20:52;;;;;;;8.93;6.90;;;2.20;74.20;;;;;;5049336;28;20028;-75
2021/01/25 11:23:18;;;;;;;7.18;5.90;;;2.20;74.20;;;;;;5066669;28;20498;-76
2021/01/25 11:25:44;;;;;;;8.73;6.63;;;2.20;74.20;;;;;;5033496;28;20113;-75
2021/01/25 11:28:10;;;;;;;5.88;5.25;;;2.30;74.30;;;;;;5065957;28;20392;-77
2021/01/25 11:30:36;;;;;;;6.55;5.65;;;2.30;74.30;;;;;;5066558;28;20032;-77
2021/01/25 11:33:02;;;;;;;12.63;5.75;;;2.40;74.50;;;;;;5065421;28;20107;-76
2021/01/25 11:35:28;;;;;;;12.50;7.22;;;2.40;74.50;;;;;;5065796;28;20048;-77
2021/01/25 11:37:54;;;;;;;7.63;6.03;;;2.40;74.50;;;;;;5048428;28;20060;-87
2021/01/25 11:40:21;;;;;;;16.20;14.27;;;2.50;74.60;;;;;;5050074;28;20071;-75
2021/01/25 11:42:47;;;;;;;19.80;17.85;;;2.50;74.60;;;;;;5052380;28;20060;-76
2021/01/25 11:45:13;;;;;;;18.48;13.85;;;2.60;74.80;;;;;;5047379;28;20025;-77
2021/01/25 11:47:39;;;;;;;17.60;14.50;;;2.60;74.90;;;;;;5044724;28;20696;-75
2021/01/25 11:50:07;;;;;;;14.95;12.48;;;2.70;75.10;;;;;;5028778;28;20025;-74
2021/01/25 11:52:33;;;;;;;13.45;12.13;;;2.80;75.20;;;;;;5046946;28;20037;-78
2021/01/25 11:54:59;;;;;;;13.95;12.60;;;2.80;75.10;;;;;;5045434;28;20032;-76
2021/01/25 11:57:25;;;;;;;12.02;10.73;;;2.90;75.20;;;;;;5045246;28;20175;-75
2021/01/25 11:59:50;;;;;;;17.52;11.55;;;2.90;75.20;;;;;;5045353;28;20060;-75
2021/01/25 12:02:18;;;;;;;13.07;10.43;;;3.00;75.30;;;;;;5029118;28;20033;-74
2021/01/25 12:04:45;;;;;;;13.50;10.07;;;3.00;75.30;;;;;;5028467;28;20056;-76
2021/01/25 12:07:11;;;;;;;11.60;10.45;;;3.00;75.30;;;;;;5046518;28;20086;-76
2021/01/25 12:09:39;;;;;;;12.60;9.85;;;3.10;75.50;;;;;;5044952;28;20431;-77
2021/01/25 12:12:05;;;;;;;10.73;9.57;;;3.10;75.50;;;;;;5028829;28;20098;-77
2021/01/25 12:14:31;;;;;;;12.20;9.80;;;3.20;75.70;;;;;;5045556;28;20025;-75
2021/01/25 12:16:57;;;;;;;9.77;8.88;;;3.20;75.60;;;;;;5040899;28;20033;-75
2021/01/25 12:19:24;;;;;;;12.30;9.10;;;3.20;75.70;;;;;;5065162;28;20534;-72
2021/01/25 12:21:50;;;;;;;10.00;8.98;;;3.30;75.80;;;;;;5065068;28;20444;-74
2021/01/25 12:24:16;;;;;;;9.93;8.93;;;3.30;75.80;;;;;;5064012;28;20032;-75
2021/01/25 12:26:42;;;;;;;10.18;8.65;;;3.30;75.80;;;;;;5065649;28;20043;-75
2021/01/25 12:29:08;;;;;;;9.38;8.38;;;3.40;75.90;;;;;;5047439;28;20068;-75
2021/01/25 12:31:34;;;;;;;9.50;7.47;;;3.40;75.90;;;;;;5064880;28;20090;-75
2021/01/25 12:34:01;;;;;;;9.73;7.75;;;3.50;76.10;;;;;;5047963;28;20424;-74
2021/01/25 12:36:27;;;;;;;7.95;7.10;;;3.40;75.90;;;;;;5064222;28;20028;-76
2021/01/25 12:38:53;;;;;;;9.38;7.65;;;3.50;76.10;;;;;;5064196;28;20515;-77
2021/01/25 12:41:18;;;;;;;10.98;7.50;;;3.50;76.10;;;;;;5063571;28;20032;-78
2021/01/25 12:43:44;;;;;;;12.32;7.22;;;3.60;76.20;;;;;;5042100;28;20098;-76
2021/01/25 12:46:10;;;;;;;7.32;6.63;;;3.60;76.20;;;;;;5063921;28;20280;-76
2021/01/25 12:48:37;;;;;;;7.72;6.93;;;3.60;76.20;;;;;;5047521;28;20079;-77
2021/01/25 12:51:03;;;;;;;7.15;6.55;;;3.70;76.40;;;;;;5065871;28;20028;-76
2021/01/25 12:53:29;;;;;;;10.00;7.35;;;3.70;76.40;;;;;;5063648;28;20036;-75